createdAt,value
2022-08-11T00:00:53.652Z,4.16
2022-08-11T00:01:56.326Z,8.37
2022-08-11T00:02:59.345Z,3.54
2022-08-11T00:04:02.235Z,12.31
2022-08-11T00:05:04.801Z,4.23
2022-08-11T00:06:07.920Z,4.25
2022-08-11T00:07:10.448Z,4.29
2022-08-11T00:08:13.668Z,6.29
2022-08-11T00:09:16.235Z,7.85
2022-08-11T00:10:19.479Z,6.71
2022-08-11T00:11:22.187Z,7.12
2022-08-11T00:12:26.705Z,3.27
2022-08-11T00:13:29.685Z,6.72
2022-08-11T00:14:37.156Z,9.27
2022-08-11T00:15:36.763Z,4.09
2022-08-11T00:16:39.837Z,8.89
2022-08-11T00:17:42.504Z,4.23
2022-08-11T00:18:45.177Z,4.51
2022-08-11T00:20:13.846Z,7.77
2022-08-11T00:20:52.764Z,4.92
2022-08-11T00:22:05.292Z,4.57
2022-08-11T00:23:00.152Z,3.47
2022-08-11T00:24:02.720Z,6.69
2022-08-11T00:25:05.285Z,3.81
2022-08-11T00:26:09.089Z,5.33
2022-08-11T00:27:14.146Z,6.93
2022-08-11T00:28:16.448Z,6.42
2022-08-11T00:29:19.302Z,3.62
2022-08-11T00:30:23.759Z,3.51
2022-08-11T00:31:26.380Z,6.09
2022-08-11T00:32:29.031Z,3.16
2022-08-11T00:33:44.298Z,3.89
2022-08-11T00:34:36.273Z,3.21
2022-08-11T00:35:53.847Z,5.62
2022-08-11T00:36:43.765Z,19.19
2022-08-11T00:37:46.697Z,6.03
2022-08-11T00:38:49.309Z,5.56
2022-08-11T00:39:52.136Z,4.03
2022-08-11T00:40:54.952Z,4.86
2022-08-11T00:41:58.028Z,5.21
2022-08-11T00:43:00.659Z,3.73
2022-08-11T00:44:03.676Z,5.59
2022-08-11T00:45:06.204Z,6.84
2022-08-11T00:46:09.627Z,4.52
2022-08-11T00:47:12.317Z,3.58
2022-08-11T00:48:14.982Z,7.31
2022-08-11T00:49:17.536Z,4.57
2022-08-11T00:50:20.617Z,5.65
2022-08-11T00:51:23.284Z,4.21
2022-08-11T00:52:25.878Z,5.51
2022-08-11T00:53:28.520Z,5.61
2022-08-11T00:54:33.017Z,3.79
2022-08-11T00:55:35.599Z,3.75
2022-08-11T00:56:38.476Z,7.03
2022-08-11T00:57:41.148Z,5.03
2022-08-11T00:58:43.887Z,4.55
2022-08-11T00:59:49.464Z,8.49
2022-08-11T01:00:52.632Z,5.79
2022-08-11T01:01:55.513Z,5.06
2022-08-11T01:02:58.184Z,3.28
2022-08-11T01:04:00.807Z,6.11
2022-08-11T01:05:03.516Z,6.51
2022-08-11T01:06:07.977Z,8.08
2022-08-11T01:07:11.019Z,3.16
2022-08-11T01:08:13.601Z,5.23
2022-08-11T01:09:21.989Z,4.18
2022-08-11T01:10:21.183Z,5.52
2022-08-11T01:11:23.832Z,6.76
2022-08-11T01:12:26.505Z,4.91
2022-08-11T01:13:29.187Z,4.66
2022-08-11T01:14:34.128Z,4.94
2022-08-11T01:15:36.248Z,4.72
2022-08-11T01:16:39.637Z,3.26
2022-08-11T01:17:42.212Z,3.81
2022-08-11T01:18:44.878Z,6.42
2022-08-11T01:20:44.665Z,9.17
2022-08-11T01:20:52.775Z,4.75
2022-08-11T01:21:55.439Z,9.09
2022-08-11T01:22:59.376Z,7.29
2022-08-11T01:24:02.245Z,5.23
2022-08-11T01:25:04.885Z,4.65
2022-08-11T01:26:08.270Z,4.47
2022-08-11T01:27:18.871Z,4.98
2022-08-11T01:28:15.449Z,4.36
2022-08-11T01:29:18.124Z,3.69
2022-08-11T01:30:22.019Z,5.26
2022-08-11T01:31:24.744Z,3.77
2022-08-11T01:32:27.356Z,4.59
2022-08-11T01:33:29.916Z,4.98
2022-08-11T01:34:32.720Z,3.26
2022-08-11T01:35:35.323Z,8.33
2022-08-11T01:36:39.933Z,3.11
2022-08-11T01:37:42.855Z,5.30
2022-08-11T01:38:45.825Z,4.09
2022-08-11T01:39:48.618Z,6.96
2022-08-11T01:40:51.682Z,6.89
2022-08-11T01:41:54.301Z,8.88
2022-08-11T01:42:57.117Z,5.54
2022-08-11T01:44:00.123Z,6.26
2022-08-11T01:45:02.785Z,6.13
2022-08-11T01:46:06.053Z,4.46
2022-08-11T01:47:08.980Z,5.39
2022-08-11T01:48:11.600Z,4.23
2022-08-11T01:49:14.256Z,9.26
2022-08-11T01:50:19.377Z,3.68
2022-08-11T01:51:21.948Z,3.33
2022-08-11T01:52:33.631Z,4.96
2022-08-11T01:53:29.027Z,6.33
2022-08-11T01:54:31.594Z,4.42
2022-08-11T01:55:34.161Z,7.86
2022-08-11T01:56:37.048Z,6.14
2022-08-11T01:57:39.971Z,3.99
2022-08-11T01:58:43.497Z,4.55
2022-08-11T01:59:47.200Z,7.20
2022-08-11T02:00:50.513Z,4.56
2022-08-11T02:01:53.489Z,3.96
2022-08-11T02:02:56.435Z,3.36
2022-08-11T02:03:59.099Z,5.27
2022-08-11T02:05:01.637Z,2.99
2022-08-11T02:06:04.752Z,2.92
2022-08-11T02:07:08.939Z,10.30
2022-08-11T02:08:11.943Z,3.13
2022-08-11T02:09:17.131Z,4.31
2022-08-11T02:10:20.542Z,6.12
2022-08-11T02:11:24.955Z,5.95
2022-08-11T02:12:28.506Z,6.84
2022-08-11T02:13:36.879Z,5.24
2022-08-11T02:14:37.162Z,3.81
2022-08-11T02:15:39.830Z,4.19
2022-08-11T02:16:42.804Z,4.50
2022-08-11T02:17:45.431Z,7.23
2022-08-11T02:18:48.049Z,8.72
2022-08-11T02:19:52.552Z,6.53
2022-08-11T02:20:55.635Z,5.61
2022-08-11T02:21:58.300Z,8.19
2022-08-11T02:23:00.975Z,6.65
2022-08-11T02:24:07.687Z,5.58
2022-08-11T02:25:08.465Z,8.18
2022-08-11T02:26:11.745Z,6.18
2022-08-11T02:27:14.312Z,8.98
2022-08-11T02:28:16.881Z,6.25
2022-08-11T02:29:19.452Z,7.53
2022-08-11T02:30:23.959Z,12.59
2022-08-11T02:32:23.970Z,6.87
2022-08-11T02:32:31.242Z,5.87
2022-08-11T02:33:34.141Z,4.24
2022-08-11T02:34:38.636Z,6.76
2022-08-11T02:35:41.301Z,11.11
2022-08-11T02:36:44.275Z,5.37
2022-08-11T02:37:46.847Z,4.29
2022-08-11T02:38:49.390Z,3.69
2022-08-11T02:39:52.027Z,6.59
2022-08-11T02:40:55.875Z,6.43
2022-08-11T02:41:58.852Z,4.67
2022-08-11T02:43:01.827Z,9.28
2022-08-11T02:44:04.395Z,5.97
2022-08-11T02:45:06.960Z,5.48
2022-08-11T02:46:17.938Z,5.56
2022-08-11T02:47:15.170Z,8.35
2022-08-11T02:48:17.656Z,4.69
2022-08-11T02:49:20.196Z,12.13
2022-08-11T02:50:23.280Z,5.63
2022-08-11T02:51:25.797Z,5.08
2022-08-11T02:52:28.389Z,5.45
2022-08-11T02:53:31.280Z,5.04
2022-08-11T02:54:33.859Z,5.12
2022-08-11T02:55:44.629Z,5.26
2022-08-11T02:56:41.746Z,5.09
2022-08-11T02:57:44.577Z,4.29
2022-08-11T02:58:47.349Z,4.11
2022-08-11T02:59:51.294Z,15.12
2022-08-11T03:00:54.268Z,6.94
2022-08-11T03:02:00.730Z,5.49
2022-08-11T03:03:01.670Z,5.76
2022-08-11T03:04:04.427Z,5.52
2022-08-11T03:05:07.399Z,4.17
2022-08-11T03:06:11.258Z,8.22
2022-08-11T03:07:28.990Z,4.67
2022-08-11T03:08:18.414Z,5.91
2022-08-11T03:09:20.895Z,3.65
2022-08-11T03:10:25.256Z,4.48
2022-08-11T03:11:27.985Z,5.09
2022-08-11T03:12:30.540Z,5.63
2022-08-11T03:13:33.468Z,3.16
2022-08-11T03:14:36.036Z,4.66
2022-08-11T03:15:38.643Z,8.28
2022-08-11T03:16:43.376Z,6.89
2022-08-11T03:17:46.223Z,8.19
2022-08-11T03:18:48.756Z,6.29
2022-08-11T03:19:51.239Z,3.51
2022-08-11T03:20:54.506Z,5.56
2022-08-11T03:22:03.255Z,4.54
2022-08-11T03:23:02.307Z,4.76
2022-08-11T03:24:04.971Z,4.29
2022-08-11T03:25:12.370Z,6.45
2022-08-11T03:26:12.783Z,6.41
2022-08-11T03:27:15.441Z,5.54
2022-08-11T03:28:18.063Z,4.37
2022-08-11T03:29:24.948Z,7.40
2022-08-11T03:30:25.593Z,4.04
2022-08-11T03:31:28.262Z,3.84
2022-08-11T03:32:30.834Z,5.87
2022-08-11T03:33:33.411Z,4.13
2022-08-11T03:34:35.963Z,3.95
2022-08-11T03:35:38.530Z,2.91
2022-08-11T03:37:15.404Z,8.39
2022-08-11T03:37:45.712Z,5.45
2022-08-11T03:38:48.280Z,6.07
2022-08-11T03:39:51.104Z,5.79
2022-08-11T03:40:55.520Z,5.25
2022-08-11T03:42:04.235Z,6.34
2022-08-11T03:43:03.156Z,4.39
2022-08-11T03:44:05.886Z,4.88
2022-08-11T03:45:08.458Z,3.63
2022-08-11T03:46:11.777Z,10.43
2022-08-11T03:47:14.279Z,9.08
2022-08-11T03:48:16.811Z,6.42
2022-08-11T03:49:19.379Z,5.49
2022-08-11T03:50:22.455Z,5.12
2022-08-11T03:51:25.081Z,5.78
2022-08-11T03:52:29.840Z,5.15
2022-08-11T03:53:32.407Z,5.58
2022-08-11T03:54:34.973Z,3.24
2022-08-11T03:55:37.668Z,5.17
2022-08-11T03:56:40.624Z,4.34
2022-08-11T03:57:43.226Z,5.85
2022-08-11T03:58:46.253Z,3.89
2022-08-11T03:59:49.241Z,7.44
2022-08-11T04:00:52.537Z,6.62
2022-08-11T04:01:55.223Z,4.43
2022-08-11T04:02:58.274Z,4.01
2022-08-11T04:04:00.808Z,7.32
2022-08-11T04:05:03.425Z,4.87
2022-08-11T04:06:06.490Z,5.17
2022-08-11T04:07:09.156Z,5.84
2022-08-11T04:08:13.676Z,7.15
2022-08-11T04:09:16.345Z,6.11
2022-08-11T04:10:19.316Z,4.82
2022-08-11T04:11:21.914Z,7.03
2022-08-11T04:12:36.712Z,6.27
2022-08-11T04:13:29.075Z,7.55
2022-08-11T04:14:31.740Z,4.71
2022-08-11T04:15:34.412Z,4.22
2022-08-11T04:16:37.377Z,6.87
2022-08-11T04:17:40.152Z,4.75
2022-08-11T04:18:42.820Z,6.17
2022-08-11T04:19:45.388Z,8.50
2022-08-11T04:20:48.422Z,6.69
2022-08-11T04:21:51.092Z,4.83
2022-08-11T04:22:54.148Z,4.20
2022-08-11T04:24:13.177Z,4.15
2022-08-11T04:25:02.240Z,9.97
2022-08-11T04:26:06.292Z,4.93
2022-08-11T04:27:14.228Z,10.19
2022-08-11T04:28:28.380Z,6.42
2022-08-11T04:29:19.352Z,6.35
2022-08-11T04:30:26.767Z,3.77
2022-08-11T04:31:50.738Z,6.54
2022-08-11T04:32:33.906Z,3.96
2022-08-11T04:33:36.591Z,4.09
2022-08-11T04:34:39.448Z,4.40
2022-08-11T04:35:43.338Z,4.28
2022-08-11T04:36:46.695Z,5.50
2022-08-11T04:37:53.472Z,8.48
2022-08-11T04:38:54.080Z,6.14
2022-08-11T04:39:56.685Z,5.66
2022-08-11T04:40:59.622Z,10.01
2022-08-11T04:42:03.048Z,5.29
2022-08-11T04:43:05.719Z,4.94
2022-08-11T04:44:08.698Z,8.81
2022-08-11T04:45:11.221Z,11.21
2022-08-11T04:46:15.615Z,5.05
2022-08-11T04:47:18.271Z,6.23
2022-08-11T04:48:20.808Z,5.29
2022-08-11T04:49:24.210Z,5.47
2022-08-11T04:50:29.324Z,4.74
2022-08-11T04:51:31.987Z,7.05
2022-08-11T04:52:38.127Z,4.59
2022-08-11T04:53:39.376Z,8.11
2022-08-11T04:54:41.936Z,6.43
2022-08-11T04:55:44.504Z,8.97
2022-08-11T04:56:47.285Z,4.39
2022-08-11T04:57:49.908Z,6.19
2022-08-11T04:58:53.296Z,6.34
2022-08-11T04:59:55.906Z,5.55
2022-08-11T05:00:59.040Z,3.62
2022-08-11T05:02:01.849Z,4.96
2022-08-11T05:03:04.625Z,5.03
2022-08-11T05:04:07.296Z,5.00
2022-08-11T05:05:09.919Z,12.48
2022-08-11T05:06:13.049Z,4.69
2022-08-11T05:07:15.682Z,4.95
2022-08-11T05:08:21.951Z,9.71
2022-08-11T05:09:22.788Z,7.41
2022-08-11T05:10:25.864Z,5.36
2022-08-11T05:11:28.435Z,10.21
2022-08-11T05:12:30.924Z,5.51
2022-08-11T05:13:33.978Z,4.67
2022-08-11T05:14:36.605Z,5.51
2022-08-11T05:15:42.603Z,3.06
2022-08-11T05:16:44.340Z,6.44
2022-08-11T05:17:46.992Z,4.89
2022-08-11T05:18:49.839Z,7.47
2022-08-11T05:19:52.349Z,7.20
2022-08-11T05:20:55.329Z,3.77
2022-08-11T05:21:57.944Z,8.54
2022-08-11T05:23:00.565Z,3.53
2022-08-11T05:24:03.377Z,5.14
2022-08-11T05:25:07.700Z,5.49
2022-08-11T05:26:46.657Z,5.57
2022-08-11T05:27:15.645Z,5.90
2022-08-11T05:28:18.312Z,4.55
2022-08-11T05:29:21.173Z,3.91
2022-08-11T05:30:25.696Z,6.56
2022-08-11T05:31:28.268Z,7.53
2022-08-11T05:32:30.832Z,9.43
2022-08-11T05:33:33.395Z,5.99
2022-08-11T05:34:36.067Z,4.49
2022-08-11T05:36:00.312Z,9.41
2022-08-11T05:36:46.219Z,4.10
2022-08-11T05:37:49.096Z,7.48
2022-08-11T05:38:51.656Z,6.47
2022-08-11T05:39:54.356Z,5.27
2022-08-11T05:41:00.033Z,4.44
2022-08-11T05:42:02.123Z,6.75
2022-08-11T05:43:05.455Z,6.78
2022-08-11T05:44:21.739Z,5.52
2022-08-11T05:45:15.263Z,5.85
2022-08-11T05:46:18.435Z,7.26
2022-08-11T05:47:21.000Z,6.31
2022-08-11T05:48:23.675Z,7.08
2022-08-11T05:49:26.442Z,3.64
2022-08-11T05:50:33.266Z,6.78
2022-08-11T05:51:35.979Z,5.62
2022-08-11T05:52:38.625Z,12.62
2022-08-11T05:53:46.106Z,4.49
2022-08-11T05:54:47.469Z,5.98
2022-08-11T05:56:02.304Z,4.85
2022-08-11T05:56:55.429Z,5.79
2022-08-11T05:57:58.034Z,7.29
2022-08-11T05:59:00.608Z,5.13
2022-08-11T06:00:03.887Z,5.00
2022-08-11T06:01:07.869Z,7.72
2022-08-11T06:02:10.659Z,4.92
2022-08-11T06:03:13.735Z,5.17
2022-08-11T06:04:16.344Z,7.81
2022-08-11T06:05:19.626Z,3.85
2022-08-11T06:06:23.281Z,6.21
2022-08-11T06:07:26.261Z,4.26
2022-08-11T06:08:28.928Z,6.76
2022-08-11T06:09:31.595Z,4.05
2022-08-11T06:10:34.879Z,6.44
2022-08-11T06:11:44.052Z,7.77
2022-08-11T06:12:42.168Z,5.85
2022-08-11T06:13:45.036Z,6.30
2022-08-11T06:14:47.716Z,5.22
2022-08-11T06:15:50.683Z,5.39
2022-08-11T06:16:53.657Z,3.85
2022-08-11T06:17:56.431Z,5.51
2022-08-11T06:18:59.100Z,6.47
2022-08-11T06:20:07.167Z,5.92
2022-08-11T06:21:06.212Z,7.58
2022-08-11T06:22:08.752Z,5.97
2022-08-11T06:23:11.483Z,5.41
2022-08-11T06:24:14.805Z,7.96
2022-08-11T06:25:17.334Z,5.41
2022-08-11T06:26:21.676Z,6.99
2022-08-11T06:27:24.207Z,7.53
2022-08-11T06:28:26.807Z,6.83
2022-08-11T06:29:38.292Z,5.35
2022-08-11T06:30:34.287Z,5.60
2022-08-11T06:31:37.091Z,6.99
2022-08-11T06:32:40.001Z,6.10
2022-08-11T06:33:42.816Z,6.08
2022-08-11T06:34:45.588Z,7.05
2022-08-11T06:35:48.118Z,4.22
2022-08-11T06:36:51.139Z,5.02
2022-08-11T06:37:59.155Z,7.98
2022-08-11T06:38:58.111Z,6.15
2022-08-11T06:40:00.822Z,5.40
2022-08-11T06:41:03.656Z,4.53
2022-08-11T06:42:06.744Z,5.44
2022-08-11T06:43:09.608Z,5.34
2022-08-11T06:44:12.481Z,6.45
2022-08-11T06:45:15.149Z,7.33
2022-08-11T06:46:28.445Z,5.61
2022-08-11T06:47:22.639Z,3.84
2022-08-11T06:48:25.218Z,5.08
2022-08-11T06:49:27.803Z,5.93
2022-08-11T06:50:31.361Z,6.37
2022-08-11T06:51:33.889Z,6.82
2022-08-11T06:52:37.076Z,7.35
2022-08-11T06:53:39.781Z,6.91
2022-08-11T06:54:42.349Z,4.73
2022-08-11T06:55:55.995Z,5.40
2022-08-11T06:56:57.496Z,6.69
2022-08-11T06:57:53.937Z,11.24
2022-08-11T06:58:56.464Z,5.11
2022-08-11T06:59:59.382Z,5.79
2022-08-11T07:01:02.008Z,3.71
2022-08-11T07:02:04.677Z,6.27
2022-08-11T07:03:07.388Z,6.72
2022-08-11T07:04:09.986Z,5.08
2022-08-11T07:05:12.520Z,9.10
2022-08-11T07:06:16.954Z,9.36
2022-08-11T07:07:20.011Z,4.97
2022-08-11T07:08:34.240Z,6.17
2022-08-11T07:09:27.399Z,5.64
2022-08-11T07:10:30.685Z,5.84
2022-08-11T07:11:33.308Z,5.95
2022-08-11T07:12:35.916Z,7.13
2022-08-11T07:13:44.461Z,13.47
2022-08-11T07:14:43.201Z,5.58
2022-08-11T07:16:10.989Z,5.85
2022-08-11T07:16:50.594Z,5.61
2022-08-11T07:17:53.395Z,8.25
2022-08-11T07:18:56.027Z,4.31
2022-08-11T07:19:58.597Z,5.70
2022-08-11T07:21:02.533Z,6.83
2022-08-11T07:22:05.690Z,6.35
2022-08-11T07:23:08.304Z,7.24
2022-08-11T07:24:12.345Z,4.29
2022-08-11T07:25:14.872Z,7.21
2022-08-11T07:26:18.400Z,6.76
2022-08-11T07:27:20.926Z,7.81
2022-08-11T07:28:25.699Z,5.95
2022-08-11T07:29:28.149Z,10.73
2022-08-11T07:30:31.537Z,5.81
2022-08-11T07:31:34.111Z,4.74
2022-08-11T07:32:37.057Z,4.41
2022-08-11T07:34:07.071Z,7.17
2022-08-11T07:34:44.257Z,5.41
2022-08-11T07:35:46.928Z,4.49
2022-08-11T07:36:50.415Z,7.34
2022-08-11T07:38:01.456Z,6.44
2022-08-11T07:38:57.804Z,6.54
2022-08-11T07:40:00.420Z,7.55
2022-08-11T07:41:03.140Z,9.21
2022-08-11T07:42:05.769Z,13.61
2022-08-11T07:43:08.375Z,7.16
2022-08-11T07:44:10.944Z,6.13
2022-08-11T07:45:13.508Z,6.03
2022-08-11T07:46:17.104Z,6.60
2022-08-11T07:47:19.626Z,7.47
2022-08-11T07:48:22.441Z,5.40
2022-08-11T07:49:25.009Z,6.05
2022-08-11T07:50:28.085Z,6.64
2022-08-11T07:51:30.611Z,11.73
2022-08-11T07:52:33.403Z,8.96
2022-08-11T07:53:57.992Z,6.07
2022-08-11T07:54:40.504Z,6.27
2022-08-11T07:55:50.280Z,7.23
2022-08-11T07:56:54.902Z,9.13
2022-08-11T07:58:16.476Z,9.71
2022-08-11T07:59:02.486Z,11.90
2022-08-11T08:00:03.362Z,9.02
2022-08-11T08:01:08.611Z,8.07
2022-08-11T08:02:11.306Z,9.40
2022-08-11T08:03:14.208Z,8.27
2022-08-11T08:04:17.224Z,8.06
2022-08-11T08:05:19.892Z,8.52
2022-08-11T08:06:36.530Z,10.19
2022-08-11T08:07:28.951Z,9.40
2022-08-11T08:08:32.820Z,9.50
2022-08-11T08:09:35.792Z,7.71
2022-08-11T08:10:39.034Z,7.13
2022-08-11T08:11:41.601Z,8.34
2022-08-11T08:12:44.311Z,9.01
2022-08-11T08:13:46.891Z,8.21
2022-08-11T08:14:51.493Z,7.61
2022-08-11T08:15:54.272Z,7.28
2022-08-11T08:16:58.176Z,5.18
2022-08-11T08:18:10.070Z,7.81
2022-08-11T08:19:05.189Z,7.81
2022-08-11T08:20:07.920Z,6.74
2022-08-11T08:21:10.685Z,8.01
2022-08-11T08:22:48.590Z,7.43
2022-08-11T08:23:17.871Z,9.95
2022-08-11T08:24:20.846Z,7.54
2022-08-11T08:25:23.412Z,8.95
2022-08-11T08:26:27.114Z,8.68
2022-08-11T08:27:30.082Z,7.32
2022-08-11T08:28:34.636Z,8.28
2022-08-11T08:29:37.300Z,10.23
2022-08-11T08:30:41.678Z,7.56
2022-08-11T08:31:44.373Z,12.06
2022-08-11T08:32:46.973Z,13.82
2022-08-11T08:33:49.590Z,12.86
2022-08-11T08:34:52.120Z,14.53
2022-08-11T08:35:56.239Z,9.17
2022-08-11T08:36:59.121Z,14.77
2022-08-11T08:38:01.690Z,16.91
2022-08-11T08:39:04.255Z,18.63
2022-08-11T08:40:07.333Z,13.82
2022-08-11T08:41:10.314Z,14.34
2022-08-11T08:42:14.744Z,15.98
2022-08-11T08:43:17.397Z,14.77
2022-08-11T08:44:37.757Z,17.84
2022-08-11T08:45:24.685Z,18.20
2022-08-11T08:46:29.188Z,17.15
2022-08-11T08:47:41.647Z,19.83
2022-08-11T08:48:36.271Z,18.25
2022-08-11T08:49:40.136Z,13.97
2022-08-11T08:50:44.170Z,14.34
2022-08-11T08:52:01.571Z,18.21
2022-08-11T08:52:53.191Z,13.68
2022-08-11T08:53:58.321Z,15.34
2022-08-11T08:55:00.377Z,13.33
2022-08-11T08:56:03.357Z,15.51
2022-08-11T08:57:05.978Z,17.15
2022-08-11T08:58:08.547Z,11.80
2022-08-11T08:59:11.157Z,14.62
2022-08-11T09:00:20.736Z,11.58
2022-08-11T09:01:20.464Z,10.18
2022-08-11T09:02:43.800Z,9.62
2022-08-11T09:04:07.298Z,8.51
2022-08-11T09:04:33.005Z,10.46
2022-08-11T09:05:35.976Z,13.04
2022-08-11T09:06:38.952Z,9.20
2022-08-11T09:07:42.002Z,12.91
2022-08-11T09:08:44.923Z,9.36
2022-08-11T09:09:47.577Z,12.65
2022-08-11T09:10:50.296Z,11.12
2022-08-11T09:11:53.112Z,9.37
2022-08-11T09:12:55.892Z,16.21
2022-08-11T09:14:03.209Z,11.92
2022-08-11T09:15:03.072Z,17.26
2022-08-11T09:16:05.998Z,12.34
2022-08-11T09:17:08.608Z,14.57
2022-08-11T09:18:11.218Z,10.63
2022-08-11T09:19:13.850Z,10.62
2022-08-11T09:20:17.909Z,13.59
2022-08-11T09:21:39.287Z,10.82
2022-08-11T09:22:25.639Z,12.34
2022-08-11T09:24:33.234Z,15.26
2022-08-11T09:25:35.802Z,12.90
2022-08-11T09:26:38.735Z,13.22
2022-08-11T09:27:41.376Z,11.41
2022-08-11T09:28:46.367Z,12.59
2022-08-11T09:29:48.932Z,11.63
2022-08-11T09:30:51.705Z,11.32
2022-08-11T09:31:54.271Z,12.89
2022-08-11T09:32:56.863Z,10.11
2022-08-11T09:33:59.713Z,10.44
2022-08-11T09:35:02.237Z,17.94
2022-08-11T09:36:05.052Z,9.93
2022-08-11T09:37:07.787Z,10.31
2022-08-11T09:38:10.247Z,9.76
2022-08-11T09:39:12.885Z,14.12
2022-08-11T09:40:17.255Z,12.79
2022-08-11T09:41:20.875Z,12.11
2022-08-11T09:42:25.636Z,10.01
2022-08-11T09:43:28.617Z,12.34
2022-08-11T09:44:31.216Z,8.42
2022-08-11T09:45:40.135Z,7.43
2022-08-11T09:46:39.428Z,10.06
2022-08-11T09:47:42.197Z,9.33
2022-08-11T09:48:44.867Z,9.87
2022-08-11T09:49:47.394Z,7.60
2022-08-11T09:50:50.411Z,9.83
2022-08-11T09:52:02.288Z,11.35
2022-08-11T09:53:36.808Z,11.96
2022-08-11T09:54:02.851Z,8.25
2022-08-11T09:55:06.819Z,12.15
2022-08-11T09:56:10.829Z,9.30
2022-08-11T09:57:13.452Z,10.04
2022-08-11T09:58:41.537Z,9.39
2022-08-11T09:59:20.576Z,8.96
2022-08-11T10:00:23.972Z,7.81
2022-08-11T10:01:26.663Z,8.24
2022-08-11T10:02:29.298Z,7.53
2022-08-11T10:03:31.972Z,7.12
2022-08-11T10:04:34.997Z,8.77
2022-08-11T10:05:37.629Z,6.94
2022-08-11T10:06:40.937Z,9.68
2022-08-11T10:07:44.601Z,9.78
2022-08-11T10:08:47.158Z,8.83
2022-08-11T10:09:49.849Z,11.81
2022-08-11T10:10:52.820Z,11.37
2022-08-11T10:11:58.060Z,8.40
2022-08-11T10:12:59.903Z,8.24
2022-08-11T10:14:33.387Z,9.24
2022-08-11T10:15:06.860Z,9.04
2022-08-11T10:16:15.690Z,10.37
2022-08-11T10:17:14.958Z,8.94
2022-08-11T10:18:17.532Z,8.11
2022-08-11T10:19:20.193Z,8.73
2022-08-11T10:20:25.894Z,7.65
2022-08-11T10:21:30.453Z,10.02
2022-08-11T10:22:33.222Z,7.15
2022-08-11T10:23:36.152Z,10.46
2022-08-11T10:24:40.711Z,8.91
2022-08-11T10:25:43.277Z,7.24
2022-08-11T10:26:45.955Z,9.16
2022-08-11T10:28:17.578Z,10.27
2022-08-11T10:29:12.199Z,7.81
2022-08-11T10:29:57.758Z,8.40
2022-08-11T10:31:02.559Z,8.29
2022-08-11T10:32:06.972Z,13.95
2022-08-11T10:33:10.664Z,9.09
2022-08-11T10:34:15.137Z,12.66
2022-08-11T10:35:19.648Z,12.92
2022-08-11T10:36:23.999Z,17.99
2022-08-11T10:38:06.295Z,10.07
2022-08-11T10:38:32.819Z,9.93
2022-08-11T10:39:35.414Z,9.19
2022-08-11T10:40:39.037Z,7.36
2022-08-11T10:42:08.644Z,10.61
2022-08-11T10:42:57.925Z,9.00
2022-08-11T10:44:02.786Z,7.24
2022-08-11T10:44:56.546Z,10.26
2022-08-11T10:45:59.143Z,10.59
2022-08-11T10:47:02.568Z,11.93
2022-08-11T10:48:05.239Z,9.96
2022-08-11T10:49:07.923Z,11.57
2022-08-11T10:50:12.332Z,9.70
2022-08-11T10:51:15.037Z,8.47
2022-08-11T10:52:17.613Z,9.57
2022-08-11T10:53:20.140Z,8.91
2022-08-11T10:54:22.891Z,9.04
2022-08-11T10:55:25.416Z,7.35
2022-08-11T10:56:29.874Z,8.99
2022-08-11T10:57:34.524Z,9.64
2022-08-11T10:58:37.175Z,8.00
2022-08-11T10:59:39.725Z,11.05
2022-08-11T11:00:42.498Z,9.65
2022-08-11T11:01:45.602Z,7.57
2022-08-11T11:03:07.108Z,7.17
2022-08-11T11:03:53.477Z,8.85
2022-08-11T11:04:56.100Z,6.11
2022-08-11T11:06:28.531Z,8.57
2022-08-11T11:07:03.440Z,10.61
2022-08-11T11:08:06.341Z,7.64
2022-08-11T11:09:08.967Z,7.55
2022-08-11T11:10:12.883Z,7.49
2022-08-11T11:11:18.191Z,10.65
2022-08-11T11:12:20.148Z,7.59
2022-08-11T11:13:22.836Z,9.37
2022-08-11T11:14:27.155Z,7.07
2022-08-11T11:15:29.995Z,9.38
2022-08-11T11:16:34.511Z,11.06
2022-08-11T11:17:37.075Z,8.31
2022-08-11T11:18:39.600Z,8.27
2022-08-11T11:19:42.067Z,8.31
2022-08-11T11:20:47.528Z,8.46
2022-08-11T11:21:49.701Z,7.04
2022-08-11T11:22:52.329Z,13.34
2022-08-11T11:23:55.141Z,8.97
2022-08-11T11:24:57.667Z,7.04
2022-08-11T11:26:00.276Z,7.71
2022-08-11T11:27:03.072Z,12.58
2022-08-11T11:28:05.720Z,8.12
2022-08-11T11:29:08.593Z,8.75
2022-08-11T11:30:12.013Z,10.75
2022-08-11T11:31:15.850Z,9.11
2022-08-11T11:32:18.886Z,7.98
2022-08-11T11:33:21.626Z,8.11
2022-08-11T11:34:24.497Z,12.60
2022-08-11T11:35:27.064Z,10.37
2022-08-11T11:36:30.144Z,14.21
2022-08-11T11:37:32.813Z,11.10
2022-08-11T11:38:36.405Z,8.89
2022-08-11T11:39:39.145Z,10.07
2022-08-11T11:40:42.048Z,10.45
2022-08-11T11:41:45.024Z,10.59
2022-08-11T11:42:48.020Z,10.12
2022-08-11T11:43:53.028Z,9.62
2022-08-11T11:44:56.164Z,11.84
2022-08-11T11:45:59.392Z,8.80
2022-08-11T11:47:02.065Z,8.54
2022-08-11T11:48:05.054Z,11.53
2022-08-11T11:49:13.985Z,14.59
2022-08-11T11:50:13.438Z,10.88
2022-08-11T11:51:16.461Z,12.71
2022-08-11T11:52:18.997Z,11.27
2022-08-11T11:53:21.665Z,11.53
2022-08-11T11:54:24.325Z,9.17
2022-08-11T11:55:26.917Z,11.83
2022-08-11T11:56:30.076Z,8.86
2022-08-11T11:57:34.550Z,14.38
2022-08-11T11:58:37.153Z,10.90
2022-08-11T11:59:39.732Z,14.39
2022-08-11T12:00:43.539Z,12.20
2022-08-11T12:01:50.246Z,11.21
2022-08-11T12:02:50.917Z,11.76
2022-08-11T12:03:53.571Z,9.55
2022-08-11T12:04:56.344Z,11.14
2022-08-11T12:05:58.907Z,11.07
2022-08-11T12:07:02.007Z,10.69
2022-08-11T12:08:10.617Z,10.08
2022-08-11T12:09:09.032Z,12.77
2022-08-11T12:10:12.310Z,10.24
2022-08-11T12:11:14.876Z,11.83
2022-08-11T12:12:17.484Z,8.84
2022-08-11T12:13:20.073Z,10.13
2022-08-11T12:14:22.780Z,10.44
2022-08-11T12:16:04.334Z,11.45
2022-08-11T12:16:33.834Z,13.21
2022-08-11T12:17:35.041Z,13.90
2022-08-11T12:18:37.663Z,14.80
2022-08-11T12:19:40.269Z,10.95
2022-08-11T12:20:44.946Z,11.08
2022-08-11T12:21:51.441Z,11.43
2022-08-11T12:22:52.172Z,12.46
2022-08-11T12:23:54.737Z,16.19
2022-08-11T12:24:57.508Z,11.91
2022-08-11T12:26:25.394Z,10.63
2022-08-11T12:27:15.997Z,13.38
2022-08-11T12:28:09.308Z,12.04
2022-08-11T12:29:11.873Z,12.95
2022-08-11T12:30:15.465Z,10.14
2022-08-11T12:31:18.173Z,13.83
2022-08-11T12:32:20.764Z,13.91
2022-08-11T12:33:24.130Z,11.09
2022-08-11T12:34:27.063Z,10.12
2022-08-11T12:35:29.735Z,11.31
2022-08-11T12:36:33.015Z,10.43
2022-08-11T12:37:35.577Z,12.10
2022-08-11T12:38:38.245Z,11.95
2022-08-11T12:40:10.797Z,9.69
2022-08-11T12:41:50.763Z,8.74
2022-08-11T12:42:55.474Z,8.45
2022-08-11T12:43:59.379Z,11.52
2022-08-11T12:45:02.358Z,9.16
2022-08-11T12:46:05.331Z,7.73
2022-08-11T12:47:07.999Z,7.71
2022-08-11T12:49:01.052Z,8.59
2022-08-11T12:49:15.795Z,7.16
2022-08-11T12:50:21.688Z,9.59
2022-08-11T12:51:25.134Z,8.17
2022-08-11T12:52:27.691Z,8.83
2022-08-11T12:53:30.671Z,9.34
2022-08-11T12:54:33.354Z,7.11
2022-08-11T12:55:36.011Z,8.27
2022-08-11T12:56:39.087Z,7.69
2022-08-11T12:57:41.819Z,8.15
2022-08-11T12:58:44.695Z,8.96
2022-08-11T12:59:49.167Z,7.84
2022-08-11T13:00:52.311Z,10.04
2022-08-11T13:01:55.234Z,9.11
2022-08-11T13:02:58.295Z,6.42
2022-08-11T13:04:01.166Z,8.02
2022-08-11T13:05:04.139Z,6.96
2022-08-11T13:06:07.922Z,7.03
2022-08-11T13:07:10.697Z,7.87
2022-08-11T13:08:13.256Z,9.59
2022-08-11T13:09:15.755Z,7.12
2022-08-11T13:10:19.346Z,7.41
2022-08-11T13:11:21.990Z,9.43
2022-08-11T13:12:24.659Z,8.79
2022-08-11T13:13:55.878Z,6.63
2022-08-11T13:14:32.172Z,7.62
2022-08-11T13:15:34.771Z,7.28
2022-08-11T13:16:37.790Z,10.78
2022-08-11T13:17:44.288Z,10.05
2022-08-11T13:18:44.981Z,9.79
2022-08-11T13:19:49.602Z,9.87
2022-08-11T13:20:52.768Z,9.78
2022-08-11T13:21:55.772Z,7.47
2022-08-11T13:22:58.618Z,9.88
2022-08-11T13:24:03.382Z,8.27
2022-08-11T13:25:05.822Z,9.72
2022-08-11T13:26:08.879Z,7.98
2022-08-11T13:27:11.476Z,8.58
2022-08-11T13:28:14.143Z,9.87
2022-08-11T13:29:16.989Z,11.43
2022-08-11T13:30:20.173Z,11.12
2022-08-11T13:31:24.377Z,9.31
2022-08-11T13:32:26.944Z,6.80
2022-08-11T13:33:29.515Z,7.87
2022-08-11T13:34:32.076Z,8.10
2022-08-11T13:35:34.745Z,8.43
2022-08-11T13:36:37.730Z,8.51
2022-08-11T13:38:19.534Z,9.68
2022-08-11T13:38:49.844Z,11.57
2022-08-11T13:39:49.441Z,7.19
2022-08-11T13:40:56.033Z,7.47
2022-08-11T13:41:57.117Z,7.15
2022-08-11T13:43:00.190Z,6.18
2022-08-11T13:44:02.823Z,6.89
2022-08-11T13:45:05.735Z,6.38
2022-08-11T13:46:09.426Z,6.79
2022-08-11T13:47:12.097Z,7.70
2022-08-11T13:48:14.619Z,7.80
2022-08-11T13:49:17.208Z,7.01
2022-08-11T13:50:21.674Z,7.18
2022-08-11T13:51:24.341Z,6.25
2022-08-11T13:52:28.829Z,8.36
2022-08-11T13:53:31.390Z,7.52
2022-08-11T13:54:34.164Z,6.82
2022-08-11T13:55:51.934Z,5.43
2022-08-11T13:56:42.269Z,5.87
2022-08-11T13:58:08.814Z,7.08